Aviation Digital Data Service (ADDS)

Output produced by METARs form (2005 UTC 24 November 2014)
found at http://aviationweather.gov/adds/metars/
 
KBDL 241726Z 2418/2524 19010G20KT 5SM BR OVC015 
     FM242200 19010G20KT 5SM BR BKN020 
     FM250300 22011G19KT 5SM BR BKN025 
     FM250900 23009KT 3SM BR SCT080 
     FM251000 23008KT P6SM SCT150